createdAt,value
2023-02-12T00:00:10.038Z,43.20
2023-02-12T00:01:09.997Z,44.40
2023-02-12T00:02:10.047Z,42.90
2023-02-12T00:03:10.120Z,47.40
2023-02-12T00:04:10.019Z,47.50
2023-02-12T00:05:09.937Z,46.30
2023-02-12T00:06:09.919Z,47.50
2023-02-12T00:07:09.835Z,45.60
2023-02-12T00:08:09.861Z,46.90
2023-02-12T00:09:09.840Z,44.00
2023-02-12T00:10:09.820Z,45.80
2023-02-12T00:11:09.782Z,45.90
2023-02-12T00:12:09.781Z,46.90
2023-02-12T00:13:09.792Z,50.40
2023-02-12T00:14:09.782Z,50.60
2023-02-12T00:15:09.743Z,44.70
2023-02-12T00:16:09.868Z,45.60
2023-02-12T00:17:09.743Z,48.60
2023-02-12T00:18:09.721Z,46.70
2023-02-12T00:19:09.738Z,47.30
2023-02-12T00:20:09.691Z,46.90
2023-02-12T00:21:09.678Z,50.60
2023-02-12T00:22:09.669Z,48.60
2023-02-12T00:23:09.659Z,46.90
2023-02-12T00:24:09.661Z,50.60
2023-02-12T00:25:09.631Z,46.30
2023-02-12T00:26:09.719Z,45.60
2023-02-12T00:27:09.631Z,47.80
2023-02-12T00:28:09.642Z,45.40
2023-02-12T00:29:09.644Z,46.00
2023-02-12T00:30:09.581Z,47.50
2023-02-12T00:31:09.770Z,48.50
2023-02-12T00:32:09.593Z,47.70
2023-02-12T00:33:09.537Z,47.30
2023-02-12T00:34:09.649Z,45.90
2023-02-12T00:35:09.553Z,45.50
2023-02-12T00:36:09.516Z,46.30
2023-02-12T00:37:09.510Z,48.70
2023-02-12T00:38:09.480Z,45.20
2023-02-12T00:39:09.588Z,45.10
2023-02-12T00:40:09.522Z,44.30
2023-02-12T00:41:09.461Z,44.90
2023-02-12T00:42:09.540Z,46.00
2023-02-12T00:43:09.460Z,45.30
2023-02-12T00:44:09.467Z,48.00
2023-02-12T00:45:09.435Z,44.60
2023-02-12T00:46:09.434Z,44.90
2023-02-12T00:47:09.392Z,41.90
2023-02-12T00:48:09.378Z,45.20
2023-02-12T00:49:09.361Z,45.30
2023-02-12T00:50:09.353Z,43.40
2023-02-12T00:51:09.365Z,43.60
2023-02-12T00:52:09.376Z,43.80
2023-02-12T00:53:09.498Z,44.70
2023-02-12T00:54:09.489Z,43.00
2023-02-12T00:55:09.449Z,42.50
2023-02-12T00:56:09.504Z,44.50
2023-02-12T00:57:09.451Z,43.70
2023-02-12T00:58:09.460Z,42.40
2023-02-12T00:59:09.421Z,45.00
2023-02-12T01:00:09.467Z,42.20
2023-02-12T01:01:09.488Z,42.30
2023-02-12T01:02:09.395Z,44.10
2023-02-12T01:03:09.217Z,41.80
2023-02-12T01:04:09.384Z,44.50
2023-02-12T01:05:09.383Z,45.80
2023-02-12T01:06:09.370Z,41.30
2023-02-12T01:07:09.266Z,42.80
2023-02-12T01:08:09.266Z,46.00
2023-02-12T01:09:10.191Z,44.30
2023-02-12T01:10:09.340Z,41.90
2023-02-12T01:11:09.160Z,44.30
2023-02-12T01:12:09.269Z,45.10
2023-02-12T01:13:09.325Z,47.40
2023-02-12T01:14:09.299Z,47.10
2023-02-12T01:15:09.266Z,48.80
2023-02-12T01:16:09.564Z,49.20
2023-02-12T01:17:09.266Z,55.90
2023-02-12T01:18:09.439Z,53.40
2023-02-12T01:19:09.213Z,51.00
2023-02-12T01:20:09.155Z,51.50
2023-02-12T01:21:09.166Z,50.80
2023-02-12T01:22:09.128Z,52.10
2023-02-12T01:23:09.012Z,54.20
2023-02-12T01:24:09.128Z,56.10
2023-02-12T01:25:09.135Z,54.90
2023-02-12T01:26:09.067Z,59.70
2023-02-12T01:27:09.071Z,58.90
2023-02-12T01:28:09.109Z,63.30
2023-02-12T01:29:09.056Z,56.70
2023-02-12T01:30:09.108Z,64.70
2023-02-12T01:31:09.141Z,61.90
2023-02-12T01:32:09.057Z,60.30
2023-02-12T01:33:08.887Z,58.00
2023-02-12T01:34:08.904Z,58.40
2023-02-12T01:35:09.032Z,59.40
2023-02-12T01:36:08.962Z,67.40
2023-02-12T01:37:08.953Z,66.50
2023-02-12T01:38:08.962Z,67.00
2023-02-12T01:39:08.968Z,60.30
2023-02-12T01:40:09.045Z,58.70
2023-02-12T01:41:08.942Z,60.00
2023-02-12T01:42:08.978Z,63.00
2023-02-12T01:43:08.758Z,63.20
2023-02-12T01:44:08.760Z,62.90
2023-02-12T01:45:08.741Z,59.80
2023-02-12T01:46:08.764Z,61.80
2023-02-12T01:47:08.735Z,60.70
2023-02-12T01:48:08.722Z,62.00
2023-02-12T01:49:08.719Z,59.60
2023-02-12T01:50:08.699Z,64.60
2023-02-12T01:51:08.708Z,57.10
2023-02-12T01:52:08.660Z,62.50
2023-02-12T01:53:08.640Z,57.50
2023-02-12T01:54:08.732Z,59.50
2023-02-12T01:55:08.737Z,59.00
2023-02-12T01:56:08.835Z,60.90
2023-02-12T01:57:08.768Z,57.60
2023-02-12T01:58:08.636Z,62.30
2023-02-12T01:59:08.790Z,64.40
2023-02-12T02:00:08.586Z,59.10
2023-02-12T02:01:08.773Z,54.90
2023-02-12T02:02:08.914Z,57.40
2023-02-12T02:03:08.739Z,55.40
2023-02-12T02:04:08.711Z,66.50
2023-02-12T02:05:08.732Z,61.90
2023-02-12T02:06:08.570Z,57.00
2023-02-12T02:07:08.541Z,63.30
2023-02-12T02:08:08.635Z,63.10
2023-02-12T02:09:08.658Z,57.50
2023-02-12T02:10:08.583Z,58.00
2023-02-12T02:11:15.796Z,58.10
2023-02-12T02:12:08.611Z,61.80
2023-02-12T02:13:08.545Z,53.70
2023-02-12T02:14:08.570Z,59.20
2023-02-12T02:15:08.482Z,54.50
2023-02-12T02:16:08.578Z,59.60
2023-02-12T02:17:08.548Z,57.80
2023-02-12T02:18:08.555Z,53.50
2023-02-12T02:19:08.545Z,69.80
2023-02-12T02:20:08.501Z,67.10
2023-02-12T02:21:08.416Z,58.40
2023-02-12T02:22:08.353Z,55.10
2023-02-12T02:23:08.310Z,56.80
2023-02-12T02:24:08.313Z,47.30
2023-02-12T02:25:08.455Z,63.80
2023-02-12T02:26:08.371Z,55.70
2023-02-12T02:27:08.425Z,67.20
2023-02-12T02:28:15.332Z,44.20
2023-02-12T02:29:08.246Z,56.20
2023-02-12T02:30:08.236Z,58.80
2023-02-12T02:31:08.371Z,51.00
2023-02-12T02:32:08.352Z,52.00
2023-02-12T02:33:08.178Z,60.90
2023-02-12T02:34:08.190Z,51.50
2023-02-12T02:35:08.184Z,53.70
2023-02-12T02:36:08.177Z,62.60
2023-02-12T02:37:08.191Z,66.70
2023-02-12T02:38:08.130Z,65.20
2023-02-12T02:39:08.132Z,64.00
2023-02-12T02:40:08.134Z,63.00
2023-02-12T02:41:08.104Z,63.50
2023-02-12T02:42:08.124Z,56.10
2023-02-12T02:43:08.074Z,60.50
2023-02-12T02:44:08.060Z,52.50
2023-02-12T02:45:08.070Z,57.00
2023-02-12T02:46:08.069Z,47.70
2023-02-12T02:47:08.079Z,54.70
2023-02-12T02:48:08.038Z,51.10
2023-02-12T02:49:08.014Z,58.10
2023-02-12T02:50:08.029Z,63.60
2023-02-12T02:51:07.989Z,48.50
2023-02-12T02:52:07.997Z,54.60
2023-02-12T02:53:08.007Z,54.20
2023-02-12T02:54:07.958Z,61.10
2023-02-12T02:55:07.946Z,59.30
2023-02-12T02:56:07.941Z,54.60
2023-02-12T02:57:07.937Z,45.90
2023-02-12T02:58:07.930Z,58.20
2023-02-12T02:59:07.917Z,50.80
2023-02-12T03:00:07.891Z,50.10
2023-02-12T03:01:07.931Z,49.80
2023-02-12T03:02:07.889Z,49.90
2023-02-12T03:03:07.937Z,53.70
2023-02-12T03:04:07.868Z,41.10
2023-02-12T03:05:07.852Z,55.10
2023-02-12T03:06:07.833Z,57.10
2023-02-12T03:07:07.843Z,49.10
2023-02-12T03:08:07.796Z,51.10
2023-02-12T03:09:07.833Z,51.80
2023-02-12T03:10:07.810Z,53.50
2023-02-12T03:11:07.769Z,48.10
2023-02-12T03:12:07.779Z,46.40
2023-02-12T03:13:07.744Z,51.40
2023-02-12T03:14:07.759Z,46.40
2023-02-12T03:15:07.736Z,51.40
2023-02-12T03:16:07.731Z,56.60
2023-02-12T03:17:07.712Z,59.30
2023-02-12T03:18:07.680Z,62.40
2023-02-12T03:19:07.682Z,54.60
2023-02-12T03:20:07.685Z,55.60
2023-02-12T03:21:07.638Z,53.40
2023-02-12T03:22:07.664Z,52.60
2023-02-12T03:23:07.648Z,48.90
2023-02-12T03:24:07.635Z,50.50
2023-02-12T03:25:07.663Z,60.30
2023-02-12T03:26:07.593Z,57.00
2023-02-12T03:27:07.602Z,48.60
2023-02-12T03:28:07.588Z,57.00
2023-02-12T03:29:07.550Z,58.00
2023-02-12T03:30:07.545Z,59.30
2023-02-12T03:31:07.631Z,52.40
2023-02-12T03:32:07.541Z,54.50
2023-02-12T03:33:07.515Z,48.00
2023-02-12T03:34:07.502Z,45.40
2023-02-12T03:35:07.497Z,57.20
2023-02-12T03:36:07.482Z,46.90
2023-02-12T03:37:07.486Z,48.90
2023-02-12T03:38:07.521Z,52.40
2023-02-12T03:39:07.513Z,60.30
2023-02-12T03:40:07.453Z,49.90
2023-02-12T03:41:07.458Z,50.80
2023-02-12T03:42:07.437Z,43.30
2023-02-12T03:43:07.416Z,47.20
2023-02-12T03:44:07.409Z,44.00
2023-02-12T03:45:07.413Z,49.10
2023-02-12T03:46:07.413Z,47.70
2023-02-12T03:47:07.380Z,42.60
2023-02-12T03:48:07.356Z,46.00
2023-02-12T03:49:07.349Z,48.80
2023-02-12T03:50:07.319Z,54.00
2023-02-12T03:51:07.312Z,40.70
2023-02-12T03:52:07.345Z,50.30
2023-02-12T03:53:07.294Z,52.10
2023-02-12T03:54:07.298Z,51.00
2023-02-12T03:55:07.306Z,43.40
2023-02-12T03:56:07.277Z,50.50
2023-02-12T03:57:07.325Z,47.90
2023-02-12T03:58:07.243Z,44.60
2023-02-12T03:59:07.224Z,53.10
2023-02-12T04:00:07.215Z,46.30
2023-02-12T04:01:07.334Z,42.10
2023-02-12T04:02:07.311Z,60.50
2023-02-12T04:03:07.187Z,40.90
2023-02-12T04:04:07.206Z,54.80
2023-02-12T04:05:07.158Z,48.70
2023-02-12T04:06:07.158Z,46.30
2023-02-12T04:07:07.174Z,44.10
2023-02-12T04:08:07.128Z,48.10
2023-02-12T04:09:07.200Z,46.20
2023-02-12T04:10:07.106Z,46.10
2023-02-12T04:11:07.080Z,46.90
2023-02-12T04:12:07.082Z,49.50
2023-02-12T04:13:07.051Z,48.80
2023-02-12T04:14:07.039Z,48.40
2023-02-12T04:15:07.074Z,45.00
2023-02-12T04:16:07.031Z,63.60
2023-02-12T04:17:07.041Z,54.30
2023-02-12T04:18:07.000Z,46.10
2023-02-12T04:19:06.982Z,48.60
2023-02-12T04:20:06.978Z,47.40
2023-02-12T04:21:06.970Z,55.40
2023-02-12T04:22:06.977Z,48.30
2023-02-12T04:23:06.958Z,52.60
2023-02-12T04:24:06.969Z,54.70
2023-02-12T04:25:06.998Z,55.50
2023-02-12T04:26:06.950Z,50.90
2023-02-12T04:27:06.954Z,43.30
2023-02-12T04:28:06.933Z,51.60
2023-02-12T04:29:06.897Z,53.00
2023-02-12T04:30:06.872Z,50.20
2023-02-12T04:31:06.975Z,42.80
2023-02-12T04:32:06.873Z,72.10
2023-02-12T04:33:06.828Z,51.30
2023-02-12T04:34:06.840Z,59.30
2023-02-12T04:35:06.845Z,50.30
2023-02-12T04:36:06.814Z,64.90
2023-02-12T04:37:06.800Z,81.20
2023-02-12T04:38:06.792Z,63.90
2023-02-12T04:39:06.767Z,58.20
2023-02-12T04:40:06.766Z,54.10
2023-02-12T04:41:06.756Z,46.50
2023-02-12T04:42:06.765Z,43.30
2023-02-12T04:43:06.746Z,53.00
2023-02-12T04:44:06.714Z,50.60
2023-02-12T04:45:06.717Z,76.70
2023-02-12T04:46:06.795Z,74.70
2023-02-12T04:47:06.733Z,53.30
2023-02-12T04:48:06.684Z,54.10
2023-02-12T04:49:06.647Z,44.60
2023-02-12T04:50:06.651Z,46.60
2023-02-12T04:51:06.655Z,56.30
2023-02-12T04:52:06.643Z,53.90
2023-02-12T04:53:06.622Z,52.90
2023-02-12T04:54:06.603Z,53.20
2023-02-12T04:55:06.606Z,77.90
2023-02-12T04:56:06.591Z,59.70
2023-02-12T04:57:06.611Z,74.50
2023-02-12T04:58:06.579Z,61.50
2023-02-12T04:59:06.585Z,54.70
2023-02-12T05:00:06.581Z,54.40
2023-02-12T05:01:06.618Z,55.40
2023-02-12T05:02:06.518Z,59.80
2023-02-12T05:03:06.498Z,48.60
2023-02-12T05:04:06.482Z,68.70
2023-02-12T05:05:06.582Z,61.10
2023-02-12T05:06:06.513Z,65.90
2023-02-12T05:07:06.491Z,68.10
2023-02-12T05:08:06.455Z,85.10
2023-02-12T05:09:06.433Z,66.00
2023-02-12T05:10:06.489Z,65.60
2023-02-12T05:11:06.435Z,68.30
2023-02-12T05:12:06.412Z,55.10
2023-02-12T05:13:06.417Z,56.00
2023-02-12T05:14:06.388Z,59.70
2023-02-12T05:15:06.352Z,52.70
2023-02-12T05:16:06.500Z,63.90
2023-02-12T05:17:06.421Z,50.90
2023-02-12T05:18:06.325Z,66.10
2023-02-12T05:19:06.316Z,55.50
2023-02-12T05:20:06.330Z,61.70
2023-02-12T05:21:06.286Z,67.40
2023-02-12T05:22:06.291Z,48.20
2023-02-12T05:23:06.275Z,61.20
2023-02-12T05:24:06.270Z,51.90
2023-02-12T05:25:06.278Z,52.70
2023-02-12T05:26:06.303Z,59.70
2023-02-12T05:27:06.317Z,60.40
2023-02-12T05:28:06.216Z,54.60
2023-02-12T05:29:06.196Z,58.90
2023-02-12T05:30:06.221Z,53.90
2023-02-12T05:31:06.324Z,48.70
2023-02-12T05:32:06.245Z,47.30
2023-02-12T05:33:06.188Z,51.80
2023-02-12T05:34:06.145Z,53.50
2023-02-12T05:35:06.157Z,55.20
2023-02-12T05:36:06.129Z,54.00
2023-02-12T05:37:06.161Z,46.20
2023-02-12T05:38:06.110Z,52.30
2023-02-12T05:39:06.094Z,56.50
2023-02-12T05:40:06.120Z,59.30
2023-02-12T05:41:06.095Z,59.30
2023-02-12T05:42:06.073Z,54.40
2023-02-12T05:43:06.055Z,59.20
2023-02-12T05:44:06.038Z,67.30
2023-02-12T05:45:06.030Z,65.60
2023-02-12T05:46:06.060Z,74.50
2023-02-12T05:47:06.015Z,58.40
2023-02-12T05:48:06.023Z,66.00
2023-02-12T05:49:05.975Z,59.30
2023-02-12T05:50:05.970Z,54.90
2023-02-12T05:51:05.944Z,53.50
2023-02-12T05:52:05.941Z,66.90
2023-02-12T05:53:05.951Z,64.80
2023-02-12T05:54:05.952Z,61.20
2023-02-12T05:55:05.917Z,58.70
2023-02-12T05:56:05.903Z,63.70
2023-02-12T05:57:05.891Z,64.40
2023-02-12T05:58:05.886Z,63.80
2023-02-12T05:59:05.894Z,65.40
2023-02-12T06:00:05.866Z,63.80
2023-02-12T06:01:05.838Z,58.90
2023-02-12T06:02:05.858Z,61.30
2023-02-12T06:03:05.850Z,64.40
2023-02-12T06:04:05.879Z,66.30
2023-02-12T06:05:05.792Z,68.80
2023-02-12T06:06:05.785Z,73.80
2023-02-12T06:07:05.768Z,68.00
2023-02-12T06:08:05.849Z,80.40
2023-02-12T06:09:05.763Z,73.80
2023-02-12T06:10:05.760Z,73.10
2023-02-12T06:11:05.754Z,73.70
2023-02-12T06:12:05.715Z,57.70
2023-02-12T06:13:05.716Z,59.60
2023-02-12T06:14:05.692Z,57.10
2023-02-12T06:15:05.701Z,60.10
2023-02-12T06:16:05.703Z,58.40
2023-02-12T06:17:05.651Z,63.10
2023-02-12T06:18:05.655Z,67.80
2023-02-12T06:19:05.696Z,64.90
2023-02-12T06:20:05.668Z,49.40
2023-02-12T06:21:05.634Z,57.50
2023-02-12T06:22:05.602Z,46.70
2023-02-12T06:23:05.638Z,56.10
2023-02-12T06:24:05.643Z,58.40
2023-02-12T06:25:05.553Z,84.20
2023-02-12T06:26:05.557Z,66.60
2023-02-12T06:27:05.561Z,74.90
2023-02-12T06:28:05.715Z,62.90
2023-02-12T06:29:05.522Z,55.80
2023-02-12T06:30:05.521Z,53.20
2023-02-12T06:31:05.638Z,53.10
2023-02-12T06:32:05.592Z,60.70
2023-02-12T06:33:05.504Z,62.50
2023-02-12T06:34:05.505Z,51.30
2023-02-12T06:35:05.457Z,51.80
2023-02-12T06:36:05.432Z,67.70
2023-02-12T06:37:05.459Z,62.40
2023-02-12T06:38:05.428Z,54.10
2023-02-12T06:39:05.443Z,61.80
2023-02-12T06:40:05.421Z,73.50
2023-02-12T06:41:05.395Z,84.00
2023-02-12T06:42:05.380Z,77.20
2023-02-12T06:43:05.409Z,68.40
2023-02-12T06:44:05.373Z,56.70
2023-02-12T06:45:05.373Z,57.80
2023-02-12T06:46:05.325Z,57.20
2023-02-12T06:47:05.337Z,57.60
2023-02-12T06:48:05.305Z,54.80
2023-02-12T06:49:05.318Z,53.40
2023-02-12T06:50:05.302Z,57.90
2023-02-12T06:51:05.277Z,54.30
2023-02-12T06:52:05.291Z,53.50
2023-02-12T06:53:05.252Z,58.00
2023-02-12T06:54:05.238Z,62.30
2023-02-12T06:55:05.248Z,56.00
2023-02-12T06:56:05.246Z,58.50
2023-02-12T06:57:05.203Z,60.90
2023-02-12T06:58:05.195Z,56.10
2023-02-12T06:59:05.205Z,57.70
2023-02-12T07:00:05.170Z,63.80
2023-02-12T07:01:05.267Z,58.50
2023-02-12T07:02:05.148Z,70.50
2023-02-12T07:03:05.136Z,66.30
2023-02-12T07:04:05.161Z,60.50
2023-02-12T07:05:05.117Z,64.50
2023-02-12T07:06:05.137Z,62.90
2023-02-12T07:07:05.090Z,71.50
2023-02-12T07:08:05.078Z,55.10
2023-02-12T07:09:05.078Z,54.40
2023-02-12T07:10:05.081Z,50.10
2023-02-12T07:11:05.097Z,72.80
2023-02-12T07:12:05.059Z,50.70
2023-02-12T07:13:05.024Z,65.60
2023-02-12T07:14:05.024Z,75.20
2023-02-12T07:15:05.004Z,46.60
2023-02-12T07:16:05.000Z,76.40
2023-02-12T07:17:04.977Z,92.60
2023-02-12T07:18:04.984Z,74.20
2023-02-12T07:19:04.957Z,64.40
2023-02-12T07:20:05.149Z,63.80
2023-02-12T07:21:04.927Z,77.80
2023-02-12T07:22:04.949Z,53.40
2023-02-12T07:23:04.965Z,75.60
2023-02-12T07:24:04.906Z,68.40
2023-02-12T07:25:04.882Z,65.70
2023-02-12T07:26:04.905Z,78.70
2023-02-12T07:27:04.891Z,67.70
2023-02-12T07:28:04.895Z,69.40
2023-02-12T07:29:04.838Z,69.10
2023-02-12T07:30:04.830Z,66.30
2023-02-12T07:31:04.947Z,72.20
2023-02-12T07:32:04.836Z,62.80
2023-02-12T07:33:04.829Z,68.70
2023-02-12T07:34:04.800Z,70.60
2023-02-12T07:35:04.798Z,77.10
2023-02-12T07:36:04.782Z,74.30
2023-02-12T07:37:04.751Z,83.80
2023-02-12T07:38:04.761Z,55.40
2023-02-12T07:39:04.747Z,59.70
2023-02-12T07:40:04.736Z,60.90
2023-02-12T07:41:04.730Z,75.90
2023-02-12T07:42:04.696Z,62.10
2023-02-12T07:43:04.691Z,53.40
2023-02-12T07:44:04.669Z,95.90
2023-02-12T07:45:04.676Z,71.90
2023-02-12T07:46:04.671Z,83.90
2023-02-12T07:47:04.643Z,97.80
2023-02-12T07:48:04.622Z,71.50
2023-02-12T07:49:04.636Z,93.00
2023-02-12T07:50:04.602Z,67.90
2023-02-12T07:51:04.595Z,66.50
2023-02-12T07:52:04.576Z,82.10
2023-02-12T07:53:04.587Z,78.50
2023-02-12T07:54:04.577Z,63.00
2023-02-12T07:55:04.573Z,61.20
2023-02-12T07:56:04.574Z,58.50
2023-02-12T07:57:04.540Z,81.00
2023-02-12T07:58:04.541Z,67.40
2023-02-12T07:59:04.505Z,66.10
2023-02-12T08:00:04.493Z,72.60
2023-02-12T08:01:04.476Z,76.00
2023-02-12T08:02:04.580Z,62.20
2023-02-12T08:03:04.474Z,72.80
2023-02-12T08:04:04.650Z,68.50
2023-02-12T08:05:04.470Z,78.80
2023-02-12T08:06:04.453Z,72.30
2023-02-12T08:07:04.423Z,71.50
2023-02-12T08:08:04.414Z,70.00
2023-02-12T08:09:04.393Z,63.60
2023-02-12T08:10:04.496Z,59.50
2023-02-12T08:11:04.368Z,63.30
2023-02-12T08:12:04.364Z,61.80
2023-02-12T08:13:04.349Z,60.10
2023-02-12T08:14:04.354Z,64.90
2023-02-12T08:15:04.320Z,68.10
2023-02-12T08:16:04.394Z,66.00
2023-02-12T08:17:04.349Z,73.90
2023-02-12T08:18:04.287Z,67.10
2023-02-12T08:19:16.606Z,69.20
2023-02-12T08:20:05.273Z,62.00
2023-02-12T08:21:04.295Z,59.90
2023-02-12T08:22:04.246Z,73.90
2023-02-12T08:23:04.243Z,62.80
2023-02-12T08:24:04.224Z,66.20
2023-02-12T08:25:04.212Z,65.10
2023-02-12T08:26:04.219Z,68.10
2023-02-12T08:27:04.200Z,59.30
2023-02-12T08:28:04.181Z,62.40
2023-02-12T08:29:04.170Z,60.70
2023-02-12T08:30:04.178Z,64.60
2023-02-12T08:31:04.215Z,70.50
2023-02-12T08:32:04.280Z,65.10
2023-02-12T08:33:04.112Z,68.10
2023-02-12T08:34:04.110Z,66.00
2023-02-12T08:35:04.124Z,66.90
2023-02-12T08:36:04.087Z,70.20
2023-02-12T08:37:04.096Z,59.80
2023-02-12T08:38:04.062Z,64.80
2023-02-12T08:39:04.048Z,69.70
2023-02-12T08:40:04.041Z,61.80
2023-02-12T08:41:04.152Z,60.10
2023-02-12T08:42:04.080Z,67.60
2023-02-12T08:43:04.003Z,63.40
2023-02-12T08:44:04.011Z,61.50
2023-02-12T08:45:03.984Z,63.10
2023-02-12T08:46:04.064Z,67.70
2023-02-12T08:47:03.957Z,58.80
2023-02-12T08:48:03.974Z,64.30
2023-02-12T08:49:03.933Z,64.80
2023-02-12T08:50:03.922Z,57.80
2023-02-12T08:51:03.914Z,64.50
2023-02-12T08:52:03.896Z,61.30
2023-02-12T08:53:03.910Z,62.10
2023-02-12T08:54:03.928Z,64.70
2023-02-12T08:55:03.866Z,66.20
2023-02-12T08:56:03.857Z,59.90
2023-02-12T08:57:03.852Z,63.70
2023-02-12T08:58:03.851Z,62.10
2023-02-12T08:59:03.846Z,59.30
2023-02-12T09:00:03.818Z,60.40
2023-02-12T09:01:03.877Z,68.60
2023-02-12T09:02:03.811Z,54.80
2023-02-12T09:03:03.800Z,66.10
2023-02-12T09:04:03.767Z,61.70
2023-02-12T09:05:03.778Z,58.50
2023-02-12T09:06:03.733Z,61.20
2023-02-12T09:07:03.731Z,66.20
2023-02-12T09:08:03.717Z,62.70
2023-02-12T09:09:03.729Z,60.00
2023-02-12T09:10:03.711Z,59.50
2023-02-12T09:11:03.684Z,55.90
2023-02-12T09:12:03.682Z,58.00
2023-02-12T09:13:03.651Z,54.80
2023-02-12T09:14:03.689Z,57.00
2023-02-12T09:15:03.645Z,54.40
2023-02-12T09:16:03.623Z,57.60
2023-02-12T09:17:03.710Z,53.00
2023-02-12T09:18:03.611Z,56.20
2023-02-12T09:19:03.595Z,55.10
2023-02-12T09:20:03.585Z,54.90
2023-02-12T09:21:03.570Z,51.30
2023-02-12T09:22:03.626Z,54.60
2023-02-12T09:23:03.549Z,53.10
2023-02-12T09:24:03.612Z,54.10
2023-02-12T09:25:03.760Z,57.30
2023-02-12T09:26:03.530Z,52.50
2023-02-12T09:27:03.510Z,58.00
2023-02-12T09:28:03.545Z,52.10
2023-02-12T09:29:03.488Z,56.20
2023-02-12T09:30:03.500Z,51.40
2023-02-12T09:31:03.557Z,49.10
2023-02-12T09:32:03.466Z,45.50
2023-02-12T09:33:03.461Z,47.50
2023-02-12T09:34:03.454Z,50.30
2023-02-12T09:35:03.426Z,47.30
2023-02-12T09:36:03.419Z,43.80
2023-02-12T09:37:03.395Z,43.90
2023-02-12T09:38:03.392Z,47.90
2023-02-12T09:39:03.395Z,44.90
2023-02-12T09:40:03.353Z,42.20
2023-02-12T09:41:03.342Z,43.20
2023-02-12T09:42:03.350Z,44.90
2023-02-12T09:43:03.335Z,43.60
2023-02-12T09:44:03.313Z,45.90
2023-02-12T09:45:03.322Z,43.40
2023-02-12T09:46:03.357Z,44.20
2023-02-12T09:47:03.275Z,38.60
2023-02-12T09:48:03.272Z,43.20
2023-02-12T09:49:03.268Z,42.10
2023-02-12T09:50:03.272Z,41.30
2023-02-12T09:51:03.228Z,37.50
2023-02-12T09:52:03.223Z,40.00
2023-02-12T09:53:03.212Z,38.30
2023-02-12T09:54:03.213Z,40.50
2023-02-12T09:55:03.191Z,35.30
2023-02-12T09:56:03.177Z,38.60
2023-02-12T09:57:03.163Z,40.80
2023-02-12T09:58:03.153Z,42.00
2023-02-12T09:59:03.166Z,38.30
2023-02-12T10:00:03.160Z,38.80
2023-02-12T10:01:03.114Z,38.00
2023-02-12T10:02:03.146Z,37.60
2023-02-12T10:03:05.333Z,35.80
2023-02-12T10:04:03.122Z,37.20
2023-02-12T10:05:03.220Z,36.60
2023-02-12T10:06:03.076Z,34.30
2023-02-12T10:07:03.052Z,34.40
2023-02-12T10:08:03.074Z,32.70
2023-02-12T10:09:03.034Z,30.30
2023-02-12T10:10:03.019Z,30.70
2023-02-12T10:11:03.013Z,30.80
2023-02-12T10:12:03.026Z,28.50
2023-02-12T10:13:02.992Z,33.10
2023-02-12T10:14:02.996Z,29.30
2023-02-12T10:15:02.981Z,28.40
2023-02-12T10:16:03.031Z,31.40
2023-02-12T10:17:02.978Z,31.30
2023-02-12T10:18:02.953Z,29.90
2023-02-12T10:19:02.948Z,29.60
2023-02-12T10:20:02.933Z,27.70
2023-02-12T10:21:02.917Z,29.80
2023-02-12T10:22:02.887Z,27.30
2023-02-12T10:23:02.879Z,25.70
2023-02-12T10:24:02.866Z,25.80
2023-02-12T10:25:02.910Z,25.60
2023-02-12T10:26:02.851Z,30.50
2023-02-12T10:27:02.834Z,26.70
2023-02-12T10:28:02.860Z,26.90
2023-02-12T10:29:02.827Z,26.20
2023-02-12T10:30:02.798Z,24.20
2023-02-12T10:31:02.875Z,22.30
2023-02-12T10:32:02.803Z,24.10
2023-02-12T10:33:02.838Z,26.30
2023-02-12T10:34:02.789Z,25.50
2023-02-12T10:35:02.738Z,22.80
2023-02-12T10:36:02.726Z,24.60
2023-02-12T10:37:02.721Z,23.90
2023-02-12T10:38:02.709Z,23.00
2023-02-12T10:39:02.709Z,23.60
2023-02-12T10:40:02.688Z,20.90
2023-02-12T10:41:02.709Z,22.40
2023-02-12T10:42:02.672Z,21.80
2023-02-12T10:43:02.667Z,21.40
2023-02-12T10:44:02.666Z,21.90
2023-02-12T10:45:02.625Z,22.60
2023-02-12T10:46:02.698Z,21.70
2023-02-12T10:47:02.624Z,21.90
2023-02-12T10:48:02.587Z,21.70
2023-02-12T10:49:02.579Z,20.70
2023-02-12T10:50:02.598Z,21.00
2023-02-12T10:51:02.568Z,24.00
2023-02-12T10:52:02.576Z,21.50
2023-02-12T10:53:02.528Z,25.30
2023-02-12T10:54:02.941Z,23.80
2023-02-12T10:55:02.513Z,24.70
2023-02-12T10:56:02.500Z,25.60
2023-02-12T10:57:02.500Z,22.60
2023-02-12T10:58:02.471Z,24.00
2023-02-12T10:59:02.458Z,24.20
2023-02-12T11:00:02.452Z,21.00
2023-02-12T11:01:02.457Z,24.00
2023-02-12T11:02:02.460Z,21.80
2023-02-12T11:03:02.428Z,21.70
2023-02-12T11:04:02.409Z,22.70
2023-02-12T11:05:02.436Z,21.60
2023-02-12T11:06:02.424Z,22.30
2023-02-12T11:07:02.392Z,24.50
2023-02-12T11:08:02.364Z,25.50
2023-02-12T11:09:02.349Z,22.70
2023-02-12T11:10:02.339Z,22.00
2023-02-12T11:11:02.323Z,22.70
2023-02-12T11:12:02.332Z,21.60
2023-02-12T11:13:02.300Z,19.90
2023-02-12T11:14:02.295Z,21.40
2023-02-12T11:15:02.314Z,20.90
2023-02-12T11:16:02.736Z,18.80
2023-02-12T11:17:02.263Z,19.80
2023-02-12T11:18:04.417Z,20.40
2023-02-12T11:19:02.244Z,20.70
2023-02-12T11:20:02.222Z,20.80
2023-02-12T11:21:02.227Z,19.80
2023-02-12T11:22:02.220Z,20.90
2023-02-12T11:23:02.197Z,19.10
2023-02-12T11:24:04.343Z,21.00
2023-02-12T11:25:02.174Z,21.00
2023-02-12T11:26:02.155Z,18.70
2023-02-12T11:27:02.163Z,17.40
2023-02-12T11:28:02.230Z,19.30
2023-02-12T11:29:02.285Z,21.20
2023-02-12T11:30:02.147Z,18.00
2023-02-12T11:31:02.219Z,18.90
2023-02-12T11:32:02.193Z,18.90
2023-02-12T11:33:02.078Z,19.90
2023-02-12T11:34:02.094Z,20.40
2023-02-12T11:35:02.064Z,19.30
2023-02-12T11:36:03.425Z,18.80
2023-02-12T11:37:02.087Z,20.90
2023-02-12T11:38:02.044Z,18.70
2023-02-12T11:39:02.012Z,18.10
2023-02-12T11:40:02.014Z,21.30
2023-02-12T11:41:02.006Z,20.40
2023-02-12T11:42:01.977Z,17.70
2023-02-12T11:43:01.966Z,18.60
2023-02-12T11:44:01.953Z,20.20
2023-02-12T11:45:01.938Z,17.00
2023-02-12T11:46:01.977Z,16.10
2023-02-12T11:47:01.930Z,17.20
2023-02-12T11:48:01.934Z,15.30
2023-02-12T11:49:01.940Z,15.80
2023-02-12T11:50:01.945Z,15.90
2023-02-12T11:51:01.888Z,15.40
2023-02-12T11:52:01.938Z,16.80
2023-02-12T11:53:01.873Z,14.90
2023-02-12T11:54:01.881Z,15.60
2023-02-12T11:55:01.829Z,15.60
2023-02-12T11:56:02.178Z,16.10
2023-02-12T11:57:01.817Z,15.60
2023-02-12T11:58:01.820Z,16.90
2023-02-12T11:59:01.804Z,15.90
2023-02-12T12:00:01.775Z,18.10
2023-02-12T12:01:01.756Z,15.70
2023-02-12T12:02:01.798Z,15.10
2023-02-12T12:03:01.788Z,15.40
2023-02-12T12:04:01.748Z,15.20
2023-02-12T12:05:01.713Z,18.10
2023-02-12T12:06:01.703Z,16.90
2023-02-12T12:07:01.691Z,17.20
2023-02-12T12:08:01.705Z,16.70
2023-02-12T12:09:01.671Z,16.20
2023-02-12T12:10:01.697Z,15.20
2023-02-12T12:11:01.647Z,15.80
2023-02-12T12:12:01.662Z,15.70
2023-02-12T12:13:01.624Z,16.90
2023-02-12T12:14:01.620Z,18.40
2023-02-12T12:15:01.605Z,17.40
2023-02-12T12:16:01.636Z,16.20
2023-02-12T12:17:01.576Z,17.20
2023-02-12T12:18:01.587Z,16.90
2023-02-12T12:19:01.564Z,19.00
2023-02-12T12:20:01.579Z,18.90
2023-02-12T12:21:01.534Z,18.80
2023-02-12T12:22:01.521Z,19.50
2023-02-12T12:23:01.509Z,19.20
2023-02-12T12:24:01.498Z,18.00
2023-02-12T12:25:01.513Z,19.30
2023-02-12T12:26:01.509Z,18.60
2023-02-12T12:27:01.467Z,19.40
2023-02-12T12:28:01.554Z,19.10
2023-02-12T12:29:01.458Z,20.60
2023-02-12T12:30:01.456Z,21.10
2023-02-12T12:31:01.483Z,19.00
2023-02-12T12:32:01.500Z,21.30
2023-02-12T12:33:01.402Z,21.60
2023-02-12T12:34:01.384Z,20.30
2023-02-12T12:35:01.386Z,19.80
2023-02-12T12:36:01.407Z,21.40
2023-02-12T12:37:01.350Z,19.70
2023-02-12T12:38:01.350Z,20.70
2023-02-12T12:39:01.360Z,20.00
2023-02-12T12:40:01.333Z,18.50
2023-02-12T12:41:01.376Z,19.70
2023-02-12T12:42:01.325Z,19.80
2023-02-12T12:43:01.326Z,20.20
2023-02-12T12:44:01.277Z,19.50
2023-02-12T12:45:01.266Z,18.80
2023-02-12T12:46:01.297Z,20.60
2023-02-12T12:47:01.279Z,18.80
2023-02-12T12:48:01.240Z,19.70
2023-02-12T12:49:01.234Z,19.30
2023-02-12T12:50:01.206Z,17.80
2023-02-12T12:51:01.197Z,17.70
2023-02-12T12:52:01.212Z,16.30